FMNMOMAA

Guest
Details From FMNM - Philibert Tsiranana
To OMAA - Abu Dhabi Intl
Flight Number -
Tags Generated
Created
Modified
Stats Distance 2,457 nm / 4,551 km
Max Altitude 0 ft / 0 m
Waypoints 4
Social Downloads 0
Likes 0
Share VATSIM

Download

Looking for another format? Having issues loading an existing format? Contact us
Advertisement - Login to hide

Notes

Generated

Route

FMNM RAPDO R1750 OMAA

ID Type Via Altitude Latitude Longitude Leg Dist Tot Dist Heading (true) Name
O FMNM APT - 0 ft / 0 m -15.66046˚ 46.34422˚ - 0 nm - -
RAPDO FIX - 0 ft / 0 m 13.38806˚ 52.25889˚ 1779 nm 1779 nm 12° / 12° -
R1750 FIX - 0 ft / 0 m 24.44439˚ 54.63521˚ 677 nm 2457 nm 11° / 12° -
O OMAA APT - 0 ft / 0 m 24.44439˚ 54.63521˚ 0 nm 2457 nm 0° / 180° -

Altitude Profile

Advertisement - Login to hide

Weather


0- 5 10 15 20 25 30 35+ Temperature / ° C

Clouds and Precipitation
Forecast for 2018-05-23 00:00 UTC. Updated 3 hours ago

Ground ~20,000 ft ~40,000 ft Winds

FMNM

Details ICAO FMNM (MJN)
Name PHILIBERT TSIRANANA
Region Comoros, Mayotte, Réunion and Madagascar
Timezone Indian/Antananarivo (UTC+3.0)
Stats Elevation 87 ft / 27 m (AMSL)
Location -15.667144° 46.351829°
Runways 1
Magnetic Variation 11.246° W

METAR

FMNM 230200Z 12004KT 9999 FEW040 23/18 Q1016

Decode

TAF

TAF FMNM 222300Z 2300/2324 14008KT 9999 FEW023 SCT040

Decode

Departure Runways

ID Width Length Bearing (true) Bearing (mag) Surface Threshold Offset Overrun Length
14 148 ft / 45 m 7,235 ft / 2,205 m 132.37° 143.62° Asphalt 0 ft / 0 m 98 ft / 30 m
32 148 ft / 45 m 7,235 ft / 2,205 m 312.37° 323.62° Asphalt 0 ft / 0 m 98 ft / 30 m

OMAA

Details ICAO OMAA (AUH)
Name ABU DHABI INTL
Region United Arab Emirates
Timezone Asia/Dubai (UTC+4.0)
Stats Elevation 88 ft / 27 m (AMSL)
Location 24.433049° 54.651182°
Runways 1
Magnetic Variation 2.000° E

METAR

OMAA 230200Z 03003KT 9000 NSC 28/07 Q1008 WS ALL RWY BECMG 10008KT

Decode

TAF

TAF OMAA 222300Z 2300/2406 06006KT 8000 NSC BECMG 2302/2304 17012KT PROB30 TEMPO 2304/2306 18017KT 4000 BLDU BECMG 2308/2310 33012KT BECMG 2318/2320 04006KT BECMG 2401/2403 12008KT

Decode

Destination Runways

ID Width Length Bearing (true) Bearing (mag) Surface Threshold Offset Overrun Length
13 148 ft / 45 m 13,461 ft / 4,103 m 127.94° 125.94° Asphalt 0 ft / 0 m 180 ft / 55 m
31 148 ft / 45 m 13,461 ft / 4,103 m 307.95° 305.95° Asphalt 0 ft / 0 m 196 ft / 60 m

Approach Navaids

Runway Type Ident Frequency Range Bearing (true) Bearing (mag) Slope Elevation
13 Localiser IAE 108.90 MHz 18 nm / 33 km 127.95° 125.95° - 110 ft / 34 m (AMSL)
13 Glidescope IAE 108.90 MHz 10 nm / 19 km 127.94° 125.94° 3.00° 120 ft / 37 m (AMSL)
13 DME IAE 108.90 MHz 18 nm / 33 km - - - 98 ft / 30 m (AMSL)
31 Localiser IAW 109.30 MHz 18 nm / 33 km 307.93° 305.93° - 88 ft / 27 m (AMSL)
31 Glidescope IAW 109.30 MHz 10 nm / 19 km 307.94° 305.94° 3.00° 122 ft / 37 m (AMSL)
31 DME IAW 109.30 MHz 18 nm / 33 km - - - 96 ft / 29 m (AMSL)